Time;durP1;ratioP1;P1;durP2;ratioP2;P2;SDS_P1;SDS_P2;PMS_P1;PMS_P2;Temp;Humidity;BMP_temperature;BMP_pressure;BME280_temperature;BME280_humidity;BME280_pressure;Samples;Min_cycle;Max_cycle;Signal;HPM_P1;HPM_P2
2022/07/07 00:00:04;;;;;;;3.45;2.85;;;17.20;99.90;;;;;;5112644;28;20164;-70
2022/07/07 00:02:30;;;;;;;6.78;2.90;;;17.30;99.90;;;;;;5113770;28;20177;-70
2022/07/07 00:04:56;;;;;;;4.47;2.42;;;17.30;99.90;;;;;;5113957;28;20576;-70
2022/07/07 00:07:22;;;;;;;4.90;2.65;;;17.30;99.90;;;;;;5113826;28;20180;-70
2022/07/07 00:09:47;;;;;;;7.45;2.80;;;17.40;99.90;;;;;;5113736;28;20176;-70
2022/07/07 00:12:13;;;;;;;3.85;2.65;;;17.40;99.90;;;;;;5112564;28;20225;-70
2022/07/07 00:14:39;;;;;;;3.50;2.75;;;17.40;99.90;;;;;;5112477;28;20191;-70
2022/07/07 00:17:05;;;;;;;3.35;2.60;;;17.40;99.90;;;;;;5114357;28;20240;-70
2022/07/07 00:19:31;;;;;;;3.17;2.50;;;17.40;99.90;;;;;;5112235;28;20265;-69
2022/07/07 00:21:57;;;;;;;5.43;3.25;;;17.40;99.90;;;;;;5112466;28;20179;-71
2022/07/07 00:24:23;;;;;;;8.90;2.95;;;17.40;99.90;;;;;;5113763;28;20234;-70
2022/07/07 00:26:48;;;;;;;7.30;3.33;;;17.50;99.90;;;;;;5113754;28;20214;-70
2022/07/07 00:29:14;;;;;;;7.00;3.33;;;17.40;99.90;;;;;;5113611;28;20196;-70
2022/07/07 00:31:40;;;;;;;4.75;2.85;;;17.50;99.90;;;;;;5113902;28;20255;-71
2022/07/07 00:34:06;;;;;;;7.20;3.05;;;17.50;99.90;;;;;;5113971;28;20183;-70
2022/07/07 00:36:31;;;;;;;7.88;3.50;;;17.50;99.90;;;;;;5114938;28;20227;-70
2022/07/07 00:38:57;;;;;;;7.60;3.88;;;17.40;99.90;;;;;;5112558;28;20204;-70
2022/07/07 00:41:23;;;;;;;4.53;3.42;;;17.40;99.90;;;;;;5114219;28;20176;-70
2022/07/07 00:43:49;;;;;;;6.13;3.63;;;17.40;99.90;;;;;;5115470;28;20200;-70
2022/07/07 00:46:15;;;;;;;4.75;3.50;;;17.50;99.90;;;;;;5117666;28;20251;-70
2022/07/07 00:48:41;;;;;;;5.82;3.53;;;17.50;99.90;;;;;;5116166;28;20689;-70
2022/07/07 00:51:11;;;;;;;9.13;3.92;;;17.50;99.90;;;;;;5117706;28;20175;-71
2022/07/07 00:53:38;;;;;;;6.55;4.10;;;17.50;99.90;;;;;;5117554;28;20200;-70
2022/07/07 00:56:04;;;;;;;6.68;3.65;;;17.60;99.90;;;;;;5117751;28;20239;-71
2022/07/07 00:58:30;;;;;;;8.70;4.05;;;17.60;99.90;;;;;;5115957;28;20574;-70
2022/07/07 01:00:56;;;;;;;7.07;4.22;;;17.60;99.90;;;;;;5116247;28;20540;-70
2022/07/07 01:03:22;;;;;;;5.57;3.65;;;17.60;99.90;;;;;;5115968;28;20200;-70
2022/07/07 01:05:48;;;;;;;7.90;3.75;;;17.70;99.90;;;;;;5116176;28;20256;-70
2022/07/07 01:08:15;;;;;;;8.32;3.80;;;17.60;99.90;;;;;;5118261;28;20191;-70
2022/07/07 01:10:45;;;;;;;8.02;4.13;;;17.60;99.90;;;;;;5118173;28;20165;-70
2022/07/07 01:13:12;;;;;;;7.00;4.22;;;17.60;99.90;;;;;;5117669;28;20181;-70
2022/07/07 01:15:38;;;;;;;5.85;3.95;;;17.60;99.90;;;;;;5116349;28;20176;-70
2022/07/07 01:18:04;;;;;;;4.45;3.47;;;17.70;99.90;;;;;;5116769;28;20238;-70
2022/07/07 01:20:30;;;;;;;7.07;3.90;;;17.60;99.90;;;;;;5117064;28;20677;-70
2022/07/07 01:22:56;;;;;;;6.47;3.70;;;17.60;99.90;;;;;;5115351;28;20204;-70
2022/07/07 01:25:23;;;;;;;7.78;3.40;;;17.70;99.90;;;;;;5116488;28;20177;-70
2022/07/07 01:27:50;;;;;;;7.63;3.55;;;17.60;99.90;;;;;;5116418;28;20189;-70
2022/07/07 01:30:17;;;;;;;8.48;3.47;;;17.60;99.90;;;;;;5116611;28;20517;-71
2022/07/07 01:32:43;;;;;;;6.68;3.30;;;17.60;99.90;;;;;;5116436;28;20169;-70
2022/07/07 01:35:10;;;;;;;5.72;3.42;;;17.70;99.90;;;;;;5116448;28;20243;-70
2022/07/07 01:37:36;;;;;;;6.35;3.75;;;17.60;99.90;;;;;;5116489;28;20173;-70
2022/07/07 01:40:04;;;;;;;6.55;3.40;;;17.60;99.90;;;;;;5116260;28;20279;-70
2022/07/07 01:42:29;;;;;;;8.20;3.45;;;17.60;99.90;;;;;;5116024;28;20168;-70
2022/07/07 01:44:55;;;;;;;6.05;3.10;;;17.60;99.90;;;;;;5116254;28;20172;-70
2022/07/07 01:47:23;;;;;;;9.15;3.60;;;17.60;99.90;;;;;;5114706;28;20172;-71
2022/07/07 01:49:49;;;;;;;4.88;3.47;;;17.60;99.90;;;;;;5114675;28;20184;-71
2022/07/07 01:52:15;;;;;;;8.07;3.38;;;17.60;99.90;;;;;;5114683;28;20645;-71
2022/07/07 01:54:41;;;;;;;4.30;3.67;;;17.60;99.90;;;;;;5113886;28;20229;-71
2022/07/07 01:57:08;;;;;;;4.28;3.20;;;17.60;99.90;;;;;;5115985;28;20169;-70
2022/07/07 01:59:35;;;;;;;7.03;3.70;;;17.60;99.90;;;;;;5114557;28;20275;-71
2022/07/07 02:02:01;;;;;;;7.55;3.58;;;17.50;99.90;;;;;;5115817;28;20186;-71
2022/07/07 02:04:27;;;;;;;8.93;3.67;;;17.50;99.90;;;;;;5115642;28;20558;-71
2022/07/07 02:06:53;;;;;;;6.68;3.60;;;17.50;99.90;;;;;;5114367;28;20225;-71
2022/07/07 02:09:18;;;;;;;5.13;3.38;;;17.50;99.90;;;;;;5115428;28;20191;-70
2022/07/07 02:11:44;;;;;;;6.15;3.60;;;17.50;99.90;;;;;;5114335;28;20645;-71
2022/07/07 02:14:10;;;;;;;6.38;3.50;;;17.50;99.90;;;;;;5115822;28;20181;-70
2022/07/07 02:16:36;;;;;;;4.35;3.55;;;17.50;99.90;;;;;;5115424;28;20225;-70
2022/07/07 02:19:04;;;;;;;3.42;3.00;;;17.50;99.90;;;;;;5115045;28;20212;-70
2022/07/07 02:21:30;;;;;;;3.97;3.25;;;17.50;99.90;;;;;;5115237;28;20260;-71
2022/07/07 02:23:57;;;;;;;5.35;3.53;;;17.40;99.90;;;;;;5113775;28;20353;-70
2022/07/07 02:26:23;;;;;;;5.72;3.55;;;17.40;99.90;;;;;;5115198;28;20177;-70
2022/07/07 02:28:49;;;;;;;5.18;3.30;;;17.40;99.90;;;;;;5113846;28;20192;-71
2022/07/07 02:31:15;;;;;;;4.85;3.90;;;17.40;99.90;;;;;;5115064;28;20534;-71
2022/07/07 02:33:41;;;;;;;10.85;3.92;;;17.40;99.90;;;;;;5115013;28;20186;-71
2022/07/07 02:36:08;;;;;;;4.40;3.53;;;17.40;99.90;;;;;;5115025;28;20169;-71
2022/07/07 02:38:36;;;;;;;5.60;3.85;;;17.40;99.90;;;;;;5113432;28;20657;-70
2022/07/07 02:41:04;;;;;;;6.07;3.97;;;17.40;99.90;;;;;;5113536;28;20180;-70
2022/07/07 02:43:30;;;;;;;6.55;4.22;;;17.30;99.90;;;;;;5115198;28;20275;-71
2022/07/07 02:45:56;;;;;;;6.30;4.68;;;17.40;99.90;;;;;;5114921;28;20610;-70
2022/07/07 02:48:24;;;;;;;4.88;4.20;;;17.40;99.90;;;;;;5114322;28;20637;-70
2022/07/07 02:50:50;;;;;;;6.00;4.50;;;17.40;99.90;;;;;;5094265;28;20173;-70
2022/07/07 02:53:17;;;;;;;6.82;4.63;;;17.30;99.90;;;;;;5094162;28;20608;-70
2022/07/07 02:55:44;;;;;;;7.75;4.88;;;17.30;99.90;;;;;;5094154;28;20222;-70
2022/07/07 02:58:11;;;;;;;6.90;4.70;;;17.40;99.90;;;;;;5094156;28;20200;-70
2022/07/07 03:00:43;;;;;;;8.13;4.68;;;17.30;99.90;;;;;;5095013;28;20185;-69
2022/07/07 03:03:15;;;;;;;7.97;5.00;;;17.30;99.90;;;;;;5094186;28;20236;-69
2022/07/07 03:05:45;;;;;;;8.00;5.00;;;17.30;99.90;;;;;;5093066;28;20180;-69
2022/07/07 03:08:11;;;;;;;7.15;5.28;;;17.30;99.90;;;;;;5092062;28;20197;-69
2022/07/07 03:10:37;;;;;;;9.25;5.13;;;17.30;99.90;;;;;;5094074;28;20165;-68
2022/07/07 03:13:03;;;;;;;7.43;4.97;;;17.30;99.90;;;;;;5092795;28;20188;-69
2022/07/07 03:15:29;;;;;;;8.00;5.30;;;17.30;99.90;;;;;;5093960;28;20173;-68
2022/07/07 03:17:56;;;;;;;8.80;5.38;;;17.30;99.90;;;;;;5093852;28;20252;-69
2022/07/07 03:20:22;;;;;;;8.00;5.25;;;17.30;99.90;;;;;;5092780;28;20185;-69
2022/07/07 03:22:48;;;;;;;11.27;6.25;;;17.20;99.90;;;;;;5093935;28;20242;-69
2022/07/07 03:25:14;;;;;;;8.95;5.47;;;17.20;99.90;;;;;;5092361;28;20172;-69
2022/07/07 03:27:40;;;;;;;12.88;5.82;;;17.20;99.90;;;;;;5095746;28;20200;-70
2022/07/07 03:30:07;;;;;;;9.80;6.60;;;17.20;99.90;;;;;;5094126;28;20176;-69
2022/07/07 03:32:33;;;;;;;7.88;6.10;;;17.10;99.90;;;;;;5094176;28;20169;-69
2022/07/07 03:34:59;;;;;;;9.30;6.47;;;17.10;99.90;;;;;;5094421;28;20568;-69
2022/07/07 03:37:25;;;;;;;10.15;6.38;;;17.10;99.90;;;;;;5092635;28;20310;-69
2022/07/07 03:39:51;;;;;;;9.48;6.70;;;17.10;99.90;;;;;;5092650;28;20271;-70
2022/07/07 03:42:17;;;;;;;11.90;7.10;;;17.10;99.90;;;;;;5094000;28;20173;-69
2022/07/07 03:44:43;;;;;;;15.07;7.88;;;17.00;99.90;;;;;;5094681;28;20205;-70
2022/07/07 03:47:11;;;;;;;11.50;8.05;;;16.90;99.90;;;;;;5092733;28;20177;-69
2022/07/07 03:49:37;;;;;;;13.45;8.63;;;16.80;99.90;;;;;;5094090;28;20193;-69
2022/07/07 03:52:03;;;;;;;10.75;7.20;;;16.70;99.90;;;;;;5093895;28;20169;-70
2022/07/07 03:54:29;;;;;;;14.45;8.45;;;16.60;99.90;;;;;;5093803;28;20641;-70
2022/07/07 03:56:55;;;;;;;14.55;8.60;;;16.50;99.90;;;;;;5093863;28;20286;-70
2022/07/07 03:59:20;;;;;;;12.38;8.23;;;16.50;99.90;;;;;;5093381;28;20197;-70
2022/07/07 04:01:46;;;;;;;17.45;8.88;;;16.40;99.90;;;;;;5094005;28;20169;-70
2022/07/07 04:04:13;;;;;;;12.77;8.65;;;16.30;99.90;;;;;;5093490;28;20564;-70
2022/07/07 04:06:38;;;;;;;11.25;9.00;;;16.30;99.90;;;;;;5092402;28;20204;-70
2022/07/07 04:09:05;;;;;;;14.60;8.77;;;16.20;99.90;;;;;;5093488;28;20214;-70
2022/07/07 04:11:31;;;;;;;14.85;9.27;;;16.20;99.90;;;;;;5094112;28;20183;-70
2022/07/07 04:13:57;;;;;;;12.48;8.82;;;16.20;99.90;;;;;;5092229;28;20177;-70
2022/07/07 04:16:22;;;;;;;14.05;9.35;;;16.10;99.90;;;;;;5092169;28;20630;-70
2022/07/07 04:18:48;;;;;;;17.98;10.25;;;16.10;99.90;;;;;;5095426;28;20273;-70
2022/07/07 04:21:14;;;;;;;16.73;9.35;;;16.10;99.90;;;;;;5097730;28;20178;-70
2022/07/07 04:23:40;;;;;;;15.32;10.50;;;16.10;99.90;;;;;;5097784;28;20216;-70
2022/07/07 04:26:05;;;;;;;13.45;9.70;;;16.00;99.90;;;;;;5096177;28;20176;-69
2022/07/07 04:28:31;;;;;;;15.07;10.38;;;16.00;99.90;;;;;;5097319;28;20189;-70
2022/07/07 04:30:57;;;;;;;14.95;10.82;;;16.00;99.90;;;;;;5096012;28;20173;-69
2022/07/07 04:33:23;;;;;;;14.27;10.25;;;16.00;99.90;;;;;;5097589;28;20184;-69
2022/07/07 04:35:48;;;;;;;15.27;10.35;;;16.00;99.90;;;;;;5097261;28;20218;-70
2022/07/07 04:38:14;;;;;;;13.77;9.85;;;16.00;99.90;;;;;;5096968;28;20216;-70
2022/07/07 04:40:41;;;;;;;15.63;9.90;;;16.00;99.90;;;;;;5095423;28;20187;-70
2022/07/07 04:43:07;;;;;;;15.45;9.77;;;16.10;99.90;;;;;;5096928;28;20201;-70
2022/07/07 04:45:34;;;;;;;11.93;9.55;;;16.10;99.90;;;;;;5097585;28;20176;-70
2022/07/07 04:47:59;;;;;;;14.88;9.60;;;16.10;99.90;;;;;;5095688;28;20700;-72
2022/07/07 04:50:25;;;;;;;14.73;9.57;;;16.20;99.90;;;;;;5097623;28;20185;-71
2022/07/07 04:52:52;;;;;;;14.65;9.30;;;16.20;99.90;;;;;;5096978;28;20176;-71
2022/07/07 04:55:19;;;;;;;13.80;9.60;;;16.20;99.90;;;;;;5096670;28;20170;-71
2022/07/07 04:57:44;;;;;;;13.27;9.55;;;16.20;99.90;;;;;;5096729;28;20205;-71
2022/07/07 05:00:11;;;;;;;13.77;8.77;;;16.20;99.90;;;;;;5096747;28;20173;-71
2022/07/07 05:02:37;;;;;;;12.00;8.77;;;16.20;99.90;;;;;;5096783;28;20173;-71
2022/07/07 05:05:03;;;;;;;12.73;8.57;;;16.20;99.90;;;;;;5097154;28;20633;-71
2022/07/07 05:07:29;;;;;;;13.90;8.82;;;16.20;99.90;;;;;;5096703;28;20239;-70
2022/07/07 05:09:55;;;;;;;13.07;9.15;;;16.20;99.90;;;;;;5095205;28;20260;-70
2022/07/07 05:12:21;;;;;;;14.38;9.80;;;16.30;99.90;;;;;;5096423;28;20193;-70
2022/07/07 05:14:47;;;;;;;13.07;9.18;;;16.20;99.90;;;;;;5096563;28;20515;-70
2022/07/07 05:17:14;;;;;;;16.77;9.80;;;16.30;99.90;;;;;;5094996;28;20197;-70
2022/07/07 05:19:39;;;;;;;13.52;9.65;;;16.20;99.90;;;;;;5096345;28;20205;-70
2022/07/07 05:22:05;;;;;;;17.15;9.73;;;16.10;99.90;;;;;;5094726;28;20239;-70
2022/07/07 05:24:31;;;;;;;15.77;9.82;;;16.00;99.90;;;;;;5095962;28;20681;-70
2022/07/07 05:26:57;;;;;;;14.73;9.50;;;16.00;99.90;;;;;;5095135;28;20208;-70
2022/07/07 05:29:23;;;;;;;13.43;10.15;;;16.00;99.90;;;;;;5094285;28;20189;-70
2022/07/07 05:31:48;;;;;;;18.45;10.80;;;16.00;99.90;;;;;;5095801;28;20180;-70
2022/07/07 05:34:14;;;;;;;15.15;10.27;;;15.90;99.90;;;;;;5094925;28;20177;-70
2022/07/07 05:36:40;;;;;;;15.95;10.35;;;16.00;99.90;;;;;;5094721;28;20735;-70
2022/07/07 05:39:06;;;;;;;16.10;10.35;;;16.00;99.90;;;;;;5095706;28;20665;-70
2022/07/07 05:41:32;;;;;;;14.77;11.23;;;16.00;99.90;;;;;;5095965;28;20165;-70
2022/07/07 05:43:58;;;;;;;16.02;10.18;;;16.00;99.90;;;;;;5095836;28;20192;-69
2022/07/07 05:46:23;;;;;;;13.75;9.88;;;15.90;99.90;;;;;;5095868;28;20169;-69
2022/07/07 05:48:49;;;;;;;13.70;9.82;;;15.80;99.90;;;;;;5094373;28;20574;-70
2022/07/07 05:51:15;;;;;;;15.32;10.50;;;15.80;99.90;;;;;;5094612;28;20542;-70
2022/07/07 05:53:40;;;;;;;11.52;9.60;;;15.70;99.90;;;;;;5095622;28;20188;-69
2022/07/07 05:56:07;;;;;;;11.75;9.50;;;15.70;99.90;;;;;;5095261;28;20280;-69
2022/07/07 05:58:32;;;;;;;15.23;9.60;;;15.70;99.90;;;;;;5095401;28;20680;-69
2022/07/07 06:00:58;;;;;;;9.10;7.20;;;15.70;99.90;;;;;;5095350;28;20173;-69
2022/07/07 06:03:24;;;;;;;8.50;6.45;;;15.60;99.90;;;;;;5094206;28;20287;-70
2022/07/07 06:05:50;;;;;;;11.93;6.72;;;15.50;99.90;;;;;;5095988;28;20209;-70
2022/07/07 06:08:17;;;;;;;7.28;6.38;;;15.40;99.90;;;;;;5094101;28;20193;-70
2022/07/07 06:10:43;;;;;;;8.63;6.43;;;15.40;99.90;;;;;;5093975;28;20181;-69
2022/07/07 06:13:09;;;;;;;11.50;6.82;;;15.40;99.90;;;;;;5095634;28;20161;-69
2022/07/07 06:15:35;;;;;;;8.48;5.22;;;15.40;99.90;;;;;;5095401;28;20219;-70
2022/07/07 06:18:04;;;;;;;5.35;4.72;;;15.50;99.90;;;;;;5095083;28;20273;-70
2022/07/07 06:20:30;;;;;;;7.45;5.03;;;15.50;99.90;;;;;;5112264;28;20188;-69
2022/07/07 06:22:57;;;;;;;5.38;4.85;;;15.40;99.90;;;;;;5115505;28;20235;-69
2022/07/07 06:25:23;;;;;;;6.25;4.88;;;15.40;99.90;;;;;;5114043;28;20222;-69
2022/07/07 06:27:49;;;;;;;5.72;4.80;;;15.50;99.90;;;;;;5115661;28;20188;-69
2022/07/07 06:30:15;;;;;;;8.07;5.47;;;15.50;99.90;;;;;;5115288;28;20519;-69
2022/07/07 06:32:41;;;;;;;7.30;6.47;;;15.50;99.90;;;;;;5115650;28;20190;-69
2022/07/07 06:35:07;;;;;;;8.43;6.95;;;15.50;99.90;;;;;;5115696;28;20168;-71
2022/07/07 06:37:33;;;;;;;8.40;7.57;;;15.50;99.90;;;;;;5116239;28;20175;-70
2022/07/07 06:39:59;;;;;;;10.27;8.15;;;15.50;99.90;;;;;;5115502;28;20581;-70
2022/07/07 06:42:25;;;;;;;9.45;7.97;;;15.50;99.90;;;;;;5115664;28;20600;-70
2022/07/07 06:44:51;;;;;;;10.38;9.00;;;15.50;99.90;;;;;;5115829;28;20208;-69
2022/07/07 06:47:16;;;;;;;13.80;8.93;;;15.50;99.90;;;;;;5115699;28;20169;-69
2022/07/07 06:49:42;;;;;;;10.30;9.20;;;15.60;99.90;;;;;;5104642;28;20193;-69
2022/07/07 06:52:08;;;;;;;11.45;10.00;;;15.50;99.90;;;;;;5094851;28;20176;-70
2022/07/07 06:54:34;;;;;;;11.20;9.90;;;15.50;99.90;;;;;;5094470;28;20223;-70
2022/07/07 06:57:00;;;;;;;12.50;10.70;;;15.60;99.90;;;;;;5094197;28;20692;-70
2022/07/07 06:59:25;;;;;;;12.65;9.55;;;15.60;99.90;;;;;;5094387;28;20189;-70
2022/07/07 07:01:51;;;;;;;13.32;10.68;;;15.70;99.90;;;;;;5094355;28;20173;-69
2022/07/07 07:04:17;;;;;;;10.75;9.55;;;15.80;99.90;;;;;;5094163;28;20229;-69
2022/07/07 07:06:44;;;;;;;13.20;9.80;;;15.80;99.90;;;;;;5094814;28;20274;-69
2022/07/07 07:09:10;;;;;;;10.20;8.38;;;15.80;99.90;;;;;;5094286;28;20274;-69
2022/07/07 07:11:36;;;;;;;9.52;7.32;;;15.90;99.90;;;;;;5092817;28;20217;-70
2022/07/07 07:14:03;;;;;;;7.38;6.13;;;16.00;99.90;;;;;;5094290;28;20165;-69
2022/07/07 07:16:29;;;;;;;8.60;5.80;;;16.00;99.90;;;;;;5094373;28;20177;-70
2022/07/07 07:18:56;;;;;;;7.13;6.15;;;16.00;99.90;;;;;;5094643;28;20693;-70
2022/07/07 07:21:22;;;;;;;6.47;5.85;;;16.00;99.90;;;;;;5095447;28;20622;-69
2022/07/07 07:23:48;;;;;;;5.75;5.13;;;16.00;99.90;;;;;;5097192;28;20208;-70
2022/07/07 07:26:13;;;;;;;5.68;5.10;;;16.00;99.90;;;;;;5095889;28;20181;-69
2022/07/07 07:28:39;;;;;;;5.30;4.80;;;16.00;99.90;;;;;;5094957;28;20741;-69
2022/07/07 07:31:05;;;;;;;5.95;4.93;;;16.00;99.90;;;;;;5094272;28;20177;-69
2022/07/07 07:33:31;;;;;;;5.82;5.22;;;16.00;99.90;;;;;;5094383;28;20303;-68
2022/07/07 07:35:58;;;;;;;4.32;3.72;;;15.90;99.90;;;;;;5094546;28;20180;-68
2022/07/07 07:38:24;;;;;;;2.40;2.20;;;15.80;99.90;;;;;;5092760;28;20201;-69
2022/07/07 07:40:49;;;;;;;2.78;2.15;;;15.60;99.90;;;;;;5093939;28;20170;-69
2022/07/07 07:43:15;;;;;;;3.67;1.95;;;15.50;99.90;;;;;;5094478;28;20192;-69
2022/07/07 07:45:42;;;;;;;2.70;2.13;;;15.50;99.90;;;;;;5093957;28;20242;-69
2022/07/07 07:48:07;;;;;;;2.58;2.38;;;15.40;99.90;;;;;;5094931;28;20212;-69
2022/07/07 07:50:33;;;;;;;4.80;2.40;;;15.50;99.90;;;;;;5092810;28;20645;-69
2022/07/07 07:53:02;;;;;;;4.80;2.45;;;15.60;99.90;;;;;;5094879;28;20168;-69
2022/07/07 07:55:28;;;;;;;4.88;2.85;;;15.60;99.90;;;;;;5097931;28;20171;-69
2022/07/07 07:57:54;;;;;;;2.50;2.30;;;15.60;99.90;;;;;;5097998;28;20201;-69
2022/07/07 08:00:21;;;;;;;3.08;2.13;;;15.70;99.90;;;;;;5098664;28;20173;-69
2022/07/07 08:02:48;;;;;;;4.32;2.75;;;15.70;99.90;;;;;;5096337;28;20212;-69
2022/07/07 08:05:15;;;;;;;5.00;2.10;;;15.70;99.90;;;;;;5097583;28;20170;-69
2022/07/07 08:07:42;;;;;;;3.08;2.42;;;15.80;99.90;;;;;;5097757;28;20169;-69
2022/07/07 08:10:11;;;;;;;4.78;2.83;;;15.90;99.90;;;;;;5097351;28;20172;-69
2022/07/07 08:12:37;;;;;;;2.92;2.45;;;15.90;99.90;;;;;;5097602;28;20250;-69
2022/07/07 08:15:04;;;;;;;8.25;2.50;;;16.00;99.90;;;;;;5096191;28;20169;-69
2022/07/07 08:17:30;;;;;;;3.25;2.40;;;16.00;99.90;;;;;;5096196;28;20219;-69
2022/07/07 08:19:56;;;;;;;8.77;3.15;;;16.00;99.90;;;;;;5097751;28;20188;-69
2022/07/07 08:22:22;;;;;;;5.60;3.38;;;16.00;99.90;;;;;;5096344;28;20605;-69
2022/07/07 08:24:48;;;;;;;4.93;3.22;;;16.10;99.90;;;;;;5095936;28;20292;-69
2022/07/07 08:27:14;;;;;;;5.88;2.40;;;16.10;99.90;;;;;;5096062;28;20205;-68
2022/07/07 08:29:40;;;;;;;6.38;2.80;;;16.10;99.90;;;;;;5097211;28;20197;-68
2022/07/07 08:32:07;;;;;;;5.82;3.03;;;15.90;99.90;;;;;;5097206;28;20218;-68
2022/07/07 08:34:34;;;;;;;3.20;2.40;;;15.80;99.90;;;;;;5097150;28;20240;-68
2022/07/07 08:36:59;;;;;;;4.72;2.60;;;15.60;99.90;;;;;;5097069;28;20173;-68
2022/07/07 08:39:25;;;;;;;5.10;2.28;;;15.50;99.90;;;;;;5097161;28;20193;-67
2022/07/07 08:41:51;;;;;;;3.92;2.30;;;15.30;99.90;;;;;;5096644;28;20177;-67
2022/07/07 08:44:18;;;;;;;6.60;2.70;;;15.20;99.90;;;;;;5096787;28;20204;-67
2022/07/07 08:46:44;;;;;;;4.85;2.38;;;15.00;99.90;;;;;;5096766;28;20661;-68
2022/07/07 08:49:10;;;;;;;6.07;2.63;;;15.00;99.90;;;;;;5095266;28;20236;-67
2022/07/07 08:51:43;;;;;;;9.80;3.00;;;14.90;99.90;;;;;;5095172;28;20306;-67
2022/07/07 08:54:14;;;;;;;5.10;2.45;;;14.90;99.90;;;;;;5096816;28;20165;-68
2022/07/07 08:56:41;;;;;;;6.43;2.95;;;14.90;99.90;;;;;;5096394;28;20203;-67
2022/07/07 08:59:08;;;;;;;3.97;2.22;;;15.00;99.90;;;;;;5096609;28;20212;-67
2022/07/07 09:01:35;;;;;;;4.97;2.35;;;15.20;99.90;;;;;;5096963;28;20180;-68
2022/07/07 09:04:02;;;;;;;8.57;2.58;;;15.30;99.90;;;;;;5094551;28;20205;-67
2022/07/07 09:06:29;;;;;;;4.35;2.40;;;15.40;99.90;;;;;;5095578;28;20175;-68
2022/07/07 09:08:55;;;;;;;6.22;2.33;;;15.60;99.90;;;;;;5096401;28;20224;-68
2022/07/07 09:11:32;;;;;;;5.38;2.53;;;15.80;99.90;;;;;;5095998;28;20177;-68
2022/07/07 09:14:18;;;;;;;3.60;2.45;;;16.10;99.90;;;;;;5096323;28;20165;-68
2022/07/07 09:16:44;;;;;;;4.70;2.40;;;16.40;99.90;;;;;;5096128;28;20189;-68
2022/07/07 09:19:21;;;;;;;5.40;2.55;;;16.50;99.90;;;;;;5095978;28;20223;-68
2022/07/07 09:21:47;;;;;;;2.45;2.10;;;16.50;99.90;;;;;;5096284;28;20202;-68
2022/07/07 09:24:13;;;;;;;3.65;2.00;;;16.60;99.90;;;;;;5095832;28;20197;-67
2022/07/07 09:26:45;;;;;;;3.38;2.08;;;16.70;99.90;;;;;;5095819;28;20646;-68
2022/07/07 09:29:17;;;;;;;4.57;2.65;;;16.80;99.90;;;;;;5095855;28;20246;-68
2022/07/07 09:31:55;;;;;;;5.65;2.58;;;16.90;99.90;;;;;;5095934;28;20650;-67
2022/07/07 09:34:22;;;;;;;6.53;2.58;;;16.90;99.90;;;;;;5095877;28;20177;-67
2022/07/07 09:39:45;;;;;;;4.07;2.50;;;17.50;99.90;;;;;;5095642;28;20746;-68
2022/07/07 09:42:17;;;;;;;6.35;2.60;;;17.50;99.90;;;;;;5095924;28;20165;-68
2022/07/07 09:44:42;;;;;;;4.85;2.65;;;17.40;99.90;;;;;;5095612;28;20669;-67
2022/07/07 09:47:09;;;;;;;6.40;2.70;;;17.30;99.90;;;;;;5095487;28;20184;-67
2022/07/07 09:49:42;;;;;;;3.60;2.58;;;17.00;99.90;;;;;;5095451;28;20280;-67
2022/07/07 09:52:17;;;;;;;4.70;2.95;;;16.80;99.90;;;;;;5095731;28;20176;-68
2022/07/07 09:54:48;;;;;;;5.20;2.40;;;16.60;99.90;;;;;;5094046;28;20653;-68
2022/07/07 09:57:15;;;;;;;6.50;2.72;;;16.30;99.90;;;;;;5095384;28;20222;-67
2022/07/07 09:59:41;;;;;;;5.15;2.50;;;16.30;99.90;;;;;;5095229;28;20285;-67
2022/07/07 10:02:17;;;;;;;2.88;2.20;;;16.20;99.90;;;;;;5093896;28;20251;-68
2022/07/07 10:04:46;;;;;;;5.68;2.35;;;16.30;99.90;;;;;;5093868;28;20193;-67
2022/07/07 10:07:15;;;;;;;3.35;2.25;;;16.30;99.90;;;;;;5095204;28;20176;-67
2022/07/07 10:09:44;;;;;;;4.10;2.33;;;16.30;99.90;;;;;;5093822;28;20606;-68
2022/07/07 10:12:13;;;;;;;3.47;2.13;;;16.40;99.90;;;;;;5094973;28;20533;-68
2022/07/07 10:14:43;;;;;;;2.78;2.17;;;16.50;99.90;;;;;;5093781;28;20523;-67
2022/07/07 10:17:11;;;;;;;6.28;2.20;;;16.70;99.90;;;;;;5094426;28;20580;-67
2022/07/07 10:19:38;;;;;;;5.32;2.35;;;16.80;99.90;;;;;;5094911;28;20207;-67
2022/07/07 10:22:04;;;;;;;3.90;2.03;;;17.00;99.90;;;;;;5094802;28;20180;-67
2022/07/07 10:24:35;;;;;;;4.35;1.80;;;17.10;99.90;;;;;;5094692;28;20261;-67
2022/07/07 10:27:03;;;;;;;2.63;1.75;;;17.40;99.90;;;;;;5094679;28;20157;-67
2022/07/07 10:29:48;;;;;;;4.13;1.80;;;17.50;99.90;;;;;;5094914;28;20338;-67
2022/07/07 10:32:41;;;;;;;2.33;1.80;;;17.90;99.90;;;;;;5094722;28;20247;-68
2022/07/07 10:35:14;;;;;;;3.30;2.00;;;18.30;99.90;;;;;;5089330;28;20181;-68
2022/07/07 10:37:45;;;;;;;6.38;2.15;;;18.40;99.90;;;;;;5094770;28;20618;-68
2022/07/07 10:40:22;;;;;;;2.63;1.95;;;18.40;99.90;;;;;;5094278;28;20618;-68
2022/07/07 10:43:28;;;;;;;4.57;2.10;;;18.40;99.90;;;;;;5094391;28;20157;-67
2022/07/07 10:45:55;;;;;;;3.50;2.00;;;18.20;99.90;;;;;;5094951;28;20212;-67
2022/07/07 10:48:44;;;;;;;3.60;2.10;;;18.00;99.90;;;;;;5092940;28;20246;-68
2022/07/07 10:51:25;;;;;;;4.93;2.10;;;17.70;99.90;;;;;;5093880;28;20491;-68
2022/07/07 10:53:57;;;;;;;2.47;1.80;;;17.50;99.90;;;;;;5094236;28;20520;-67
2022/07/07 10:56:23;;;;;;;3.15;2.15;;;17.40;99.90;;;;;;5094053;28;20203;-67
2022/07/07 10:59:00;;;;;;;1.85;1.75;;;17.20;99.90;;;;;;5094386;28;20606;-67
2022/07/07 11:01:31;;;;;;;1.92;1.83;;;17.20;99.90;;;;;;5094118;28;20168;-67
2022/07/07 11:03:57;;;;;;;2.08;1.90;;;17.20;99.90;;;;;;5092789;28;20197;-67
2022/07/07 11:06:24;;;;;;;1.92;1.60;;;17.40;99.90;;;;;;5094052;28;20149;-67
2022/07/07 11:08:59;;;;;;;2.00;1.70;;;17.60;99.90;;;;;;5093922;28;20189;-67
2022/07/07 11:11:25;;;;;;;3.90;1.77;;;17.90;99.90;;;;;;5093883;28;20196;-68
2022/07/07 11:14:04;;;;;;;4.30;1.90;;;18.20;99.90;;;;;;5093891;28;20212;-67
2022/07/07 11:16:30;;;;;;;2.38;1.70;;;18.40;99.90;;;;;;5093934;28;20161;-68
2022/07/07 11:18:58;;;;;;;3.22;1.67;;;18.80;99.90;;;;;;5092227;28;20705;-68
2022/07/07 11:21:40;;;;;;;2.25;1.75;;;19.10;99.90;;;;;;5092558;28;20180;-68
2022/07/07 11:24:26;;;;;;;2.78;1.58;;;19.20;99.90;;;;;;5094011;28;20193;-66
2022/07/07 11:26:57;;;;;;;4.57;1.75;;;19.20;99.90;;;;;;5093432;28;20649;-70
2022/07/07 11:29:23;;;;;;;4.72;1.70;;;19.10;99.90;;;;;;5093317;28;20199;-70
2022/07/07 11:32:02;;;;;;;2.00;1.80;;;19.10;99.90;;;;;;5093966;28;20165;-68
2022/07/07 11:34:42;;;;;;;1.67;1.52;;;18.90;99.90;;;;;;5093680;28;20161;-69
2022/07/07 11:37:28;;;;;;;2.03;1.52;;;18.90;99.90;;;;;;5093671;28;20188;-67
2022/07/07 11:39:55;;;;;;;3.17;1.55;;;18.90;99.90;;;;;;5093946;28;20153;-66
2022/07/07 11:42:21;;;;;;;1.63;1.52;;;18.80;99.90;;;;;;5093443;28;20177;-66
2022/07/07 11:44:47;;;;;;;4.15;1.67;;;18.90;99.90;;;;;;5093733;28;20729;-66
2022/07/07 11:47:13;;;;;;;2.05;1.40;;;19.10;99.90;;;;;;5094224;28;20196;-66
2022/07/07 11:49:40;;;;;;;1.60;1.50;;;19.20;99.90;;;;;;5093398;28;20657;-67
2022/07/07 11:52:11;;;;;;;3.25;1.50;;;19.40;99.90;;;;;;5092272;28;20177;-67
2022/07/07 11:54:46;;;;;;;1.80;1.40;;;19.40;99.90;;;;;;5094019;28;20541;-67
2022/07/07 11:57:11;;;;;;;1.52;1.40;;;19.30;99.90;;;;;;5093144;28;20641;-68
2022/07/07 11:59:37;;;;;;;1.42;1.33;;;19.30;99.90;;;;;;5092174;28;20222;-67
2022/07/07 12:02:19;;;;;;;2.28;1.40;;;19.50;99.90;;;;;;5093397;28;20703;-68
2022/07/07 12:04:45;;;;;;;1.67;1.40;;;19.50;99.90;;;;;;5093446;28;20661;-68
2022/07/07 12:07:11;;;;;;;1.85;1.50;;;19.60;99.90;;;;;;5093395;28;20178;-68
2022/07/07 12:09:37;;;;;;;2.10;1.70;;;19.60;99.90;;;;;;5093420;28;20315;-68
2022/07/07 12:12:03;;;;;;;2.90;1.70;;;19.50;99.90;;;;;;5093277;28;20252;-67
2022/07/07 12:14:29;;;;;;;2.33;1.60;;;19.10;99.90;;;;;;5093335;28;20188;-67
2022/07/07 12:16:56;;;;;;;4.78;1.60;;;18.60;99.90;;;;;;5093626;28;20166;-69
2022/07/07 12:19:22;;;;;;;2.08;1.83;;;18.30;99.90;;;;;;5093373;28;20246;-68
2022/07/07 12:21:49;;;;;;;4.78;1.80;;;18.10;99.90;;;;;;5093410;28;20181;-68
2022/07/07 12:24:25;;;;;;;3.58;1.58;;;18.10;99.90;;;;;;5092129;28;20213;-67
2022/07/07 12:26:51;;;;;;;2.97;1.60;;;18.00;99.90;;;;;;5093271;28;20232;-67
2022/07/07 12:29:22;;;;;;;2.30;1.60;;;18.00;99.90;;;;;;5093322;28;20212;-68
2022/07/07 12:31:50;;;;;;;3.72;1.60;;;18.00;99.90;;;;;;5093549;28;20161;-68
2022/07/07 12:34:19;;;;;;;2.17;1.55;;;18.10;99.90;;;;;;5093892;28;20264;-68
2022/07/07 12:36:47;;;;;;;1.55;1.40;;;18.10;99.90;;;;;;5092664;28;20184;-68
2022/07/07 12:39:14;;;;;;;1.88;1.50;;;18.10;99.90;;;;;;5094529;28;20288;-69
2022/07/07 12:41:41;;;;;;;1.67;1.58;;;18.20;99.90;;;;;;5097113;28;20173;-72
2022/07/07 12:44:26;;;;;;;2.95;1.60;;;18.30;99.90;;;;;;5097259;28;20245;-68
2022/07/07 12:46:56;;;;;;;4.60;1.63;;;18.50;99.90;;;;;;5097023;28;20153;-68